Time;durP1;ratioP1;P1;durP2;ratioP2;P2;SDS_P1;SDS_P2;PMS_P1;PMS_P2;Temp;Humidity;BMP_temperature;BMP_pressure;BME280_temperature;BME280_humidity;BME280_pressure;Samples;Min_cycle;Max_cycle;Signal;HPM_P1;HPM_P2
2021/11/08 00:01:37;;;;;;;8.80;5.80;;;8.30;64.90;;;;;;4932172;29;20455;-87
2021/11/08 00:04:05;;;;;;;8.00;5.50;;;8.30;65.60;;;;;;4933036;29;20431;-87
2021/11/08 00:06:31;;;;;;;5.40;4.60;;;8.30;65.90;;;;;;4933013;29;20428;-87
2021/11/08 00:08:56;;;;;;;7.63;5.50;;;8.30;66.30;;;;;;4932668;29;20820;-86
2021/11/08 00:11:26;;;;;;;6.17;5.57;;;8.30;65.50;;;;;;4933302;29;20469;-86
2021/11/08 00:13:52;;;;;;;8.43;5.70;;;8.30;65.40;;;;;;4932552;29;20180;-86
2021/11/08 00:21:43;;;;;;;9.90;5.30;;;8.40;64.40;;;;;;4933749;29;20498;-88
2021/11/08 00:24:11;;;;;;;6.60;5.87;;;8.30;64.80;;;;;;4935456;29;20434;-86
2021/11/08 00:26:36;;;;;;;6.90;5.77;;;8.30;65.20;;;;;;4931941;29;20554;-86
2021/11/08 00:29:02;;;;;;;5.70;5.20;;;8.30;64.40;;;;;;4932179;29;20532;-85
2021/11/08 00:31:28;;;;;;;5.57;5.03;;;8.30;63.60;;;;;;4931053;29;20184;-86
2021/11/08 00:33:53;;;;;;;7.60;5.50;;;8.30;63.60;;;;;;4932050;29;20183;-85
2021/11/08 00:36:19;;;;;;;11.37;7.07;;;8.30;65.00;;;;;;4931486;29;20271;-86
2021/11/08 00:38:45;;;;;;;8.83;5.37;;;8.30;64.00;;;;;;4932038;29;20275;-86
2021/11/08 00:41:11;;;;;;;9.13;5.50;;;8.30;65.10;;;;;;4932105;29;20212;-87
2021/11/08 00:43:36;;;;;;;6.00;5.37;;;8.30;64.20;;;;;;4932044;29;20435;-85
2021/11/08 00:46:02;;;;;;;5.93;5.33;;;8.20;63.90;;;;;;4931567;29;20274;-85
2021/11/08 00:48:32;;;;;;;8.70;5.43;;;8.20;65.00;;;;;;4931566;29;20211;-85
2021/11/08 00:50:58;;;;;;;9.07;5.30;;;8.10;65.00;;;;;;4932725;29;20424;-85
2021/11/08 00:53:23;;;;;;;5.80;5.20;;;8.10;65.40;;;;;;4931373;29;20431;-86
2021/11/08 00:55:51;;;;;;;5.17;4.50;;;8.00;65.80;;;;;;4931874;29;20275;-86
2021/11/08 00:58:33;;;;;;;7.73;4.93;;;8.00;66.20;;;;;;4930908;29;20216;-85
2021/11/08 01:01:03;;;;;;;6.20;5.20;;;8.00;66.10;;;;;;4934696;29;20458;-84
2021/11/08 01:03:32;;;;;;;6.20;4.80;;;7.90;66.80;;;;;;4934214;29;20427;-84
2021/11/08 01:05:57;;;;;;;5.90;5.33;;;7.80;67.00;;;;;;4934275;29;20428;-83
2021/11/08 01:08:23;;;;;;;10.47;5.10;;;7.70;67.80;;;;;;4933852;29;20478;-82
2021/11/08 01:10:49;;;;;;;6.20;5.60;;;7.80;67.50;;;;;;4934078;29;20189;-82
2021/11/08 01:13:16;;;;;;;7.90;5.40;;;7.80;67.40;;;;;;4933581;29;20434;-83
2021/11/08 01:15:42;;;;;;;9.20;6.30;;;7.70;67.80;;;;;;4933586;29;20437;-82
2021/11/08 01:18:08;;;;;;;8.20;6.60;;;7.70;68.30;;;;;;4933697;29;20432;-82
2021/11/08 01:20:35;;;;;;;5.77;5.30;;;7.70;69.00;;;;;;4933580;29;20503;-84
2021/11/08 01:23:04;;;;;;;10.30;6.37;;;7.50;69.60;;;;;;4934044;29;20540;-83
2021/11/08 01:25:33;;;;;;;7.70;6.00;;;7.50;68.80;;;;;;4932841;29;20424;-83
2021/11/08 01:28:01;;;;;;;6.10;5.60;;;7.50;69.90;;;;;;4933629;29;20490;-83
2021/11/08 01:30:28;;;;;;;7.30;5.50;;;7.40;69.80;;;;;;4933310;29;20786;-83
2021/11/08 01:33:09;;;;;;;7.70;6.20;;;7.40;69.20;;;;;;4933188;29;20829;-83
2021/11/08 01:35:40;;;;;;;8.40;5.70;;;7.40;69.20;;;;;;4932862;29;21082;-83
2021/11/08 01:40:43;;;;;;;6.70;5.20;;;7.40;69.40;;;;;;4934548;29;20412;-83
2021/11/08 01:43:11;;;;;;;6.20;5.13;;;7.40;68.80;;;;;;4933619;29;20921;-83
2021/11/08 01:45:37;;;;;;;9.90;5.80;;;7.30;68.70;;;;;;4935761;29;20880;-83
2021/11/08 01:48:04;;;;;;;11.30;5.13;;;7.40;69.10;;;;;;4933962;29;20468;-83
2021/11/08 01:50:31;;;;;;;9.27;5.43;;;7.30;68.20;;;;;;4932377;29;20419;-83
2021/11/08 01:52:58;;;;;;;6.27;5.63;;;7.30;68.10;;;;;;4932474;29;20487;-83
2021/11/08 01:55:26;;;;;;;6.87;5.43;;;7.20;68.50;;;;;;4933326;29;20923;-83
2021/11/08 01:57:52;;;;;;;8.10;5.13;;;7.20;68.60;;;;;;4933373;29;20444;-85
2021/11/08 02:00:19;;;;;;;7.33;5.23;;;7.10;69.20;;;;;;4933543;29;20478;-85
2021/11/08 02:02:45;;;;;;;6.33;5.70;;;7.10;69.90;;;;;;4932845;29;20790;-86
2021/11/08 02:05:11;;;;;;;9.10;5.90;;;7.10;69.60;;;;;;4933036;29;20420;-83
2021/11/08 02:07:38;;;;;;;9.50;5.97;;;7.10;69.60;;;;;;4934248;29;20933;-85
2021/11/08 02:10:06;;;;;;;6.20;5.60;;;7.00;69.40;;;;;;4932770;29;20427;-85
2021/11/08 02:12:32;;;;;;;6.77;5.60;;;7.00;70.80;;;;;;4932334;29;20515;-85
2021/11/08 02:14:59;;;;;;;6.40;5.40;;;7.10;70.60;;;;;;4949290;29;20428;-82
2021/11/08 02:17:26;;;;;;;7.13;5.77;;;7.00;70.70;;;;;;4932771;29;20940;-86
2021/11/08 02:20:13;;;;;;;8.27;5.23;;;6.90;70.40;;;;;;4935880;29;20481;-86
2021/11/08 02:22:39;;;;;;;6.30;5.30;;;7.00;70.90;;;;;;4933006;29;20442;-84
2021/11/08 02:25:05;;;;;;;8.13;4.90;;;6.90;69.40;;;;;;4932624;29;20929;-83
2021/11/08 02:27:31;;;;;;;9.60;5.90;;;6.80;69.20;;;;;;4932243;29;20212;-83
2021/11/08 02:29:57;;;;;;;7.97;5.13;;;6.70;70.20;;;;;;4932502;29;20844;-84
2021/11/08 02:32:23;;;;;;;5.37;4.97;;;6.70;71.00;;;;;;4932356;29;20183;-83
2021/11/08 02:34:49;;;;;;;10.23;6.07;;;6.70;71.10;;;;;;4932432;29;20425;-83
2021/11/08 02:37:15;;;;;;;7.47;5.23;;;6.60;70.70;;;;;;4932612;29;20490;-85
2021/11/08 02:39:43;;;;;;;7.87;5.40;;;6.60;70.60;;;;;;4931943;29;20184;-83
2021/11/08 02:42:09;;;;;;;6.63;5.43;;;6.60;70.60;;;;;;4932645;29;20438;-85
2021/11/08 02:44:35;;;;;;;6.07;5.47;;;6.60;69.70;;;;;;4931496;29;20420;-82
2021/11/08 02:47:00;;;;;;;5.90;5.30;;;6.50;70.70;;;;;;4932349;29;20697;-83
2021/11/08 02:49:30;;;;;;;10.47;6.07;;;6.50;70.90;;;;;;4933336;29;20300;-84
2021/11/08 02:52:02;;;;;;;8.90;5.30;;;6.50;70.50;;;;;;4931963;29;20212;-83
2021/11/08 02:54:32;;;;;;;9.80;6.33;;;6.40;71.10;;;;;;4931980;29;20813;-83
2021/11/08 02:56:59;;;;;;;9.90;5.90;;;6.40;71.30;;;;;;4932015;29;20529;-83
2021/11/08 02:59:27;;;;;;;7.50;5.93;;;6.40;71.00;;;;;;4933337;29;20423;-83
2021/11/08 03:01:54;;;;;;;9.27;6.97;;;6.30;71.00;;;;;;4932152;29;20432;-83
2021/11/08 03:04:25;;;;;;;6.77;6.17;;;6.30;71.50;;;;;;4932447;29;20920;-86
2021/11/08 03:06:50;;;;;;;8.40;6.17;;;6.30;70.80;;;;;;4931703;29;20829;-84
2021/11/08 03:09:22;;;;;;;6.23;5.63;;;6.30;71.50;;;;;;4932387;29;20420;-84
2021/11/08 03:11:48;;;;;;;6.73;6.00;;;6.30;72.10;;;;;;4948948;29;20172;-86
2021/11/08 03:14:17;;;;;;;6.97;6.17;;;6.20;72.90;;;;;;4948626;29;20517;-84
2021/11/08 03:16:50;;;;;;;10.73;5.20;;;6.20;72.00;;;;;;4933233;29;20439;-85
2021/11/08 03:21:55;;;;;;;8.47;6.17;;;6.20;72.30;;;;;;4934319;29;20411;-84
2021/11/08 03:27:09;;;;;;;7.13;6.20;;;6.20;72.50;;;;;;4934326;29;20554;-85
2021/11/08 03:29:35;;;;;;;8.30;6.03;;;6.20;73.10;;;;;;4932011;29;20458;-84
2021/11/08 03:32:01;;;;;;;10.23;6.60;;;6.30;73.20;;;;;;4933839;29;20416;-85
2021/11/08 03:34:29;;;;;;;13.37;6.43;;;6.20;72.20;;;;;;4931913;29;20874;-85
2021/11/08 03:36:56;;;;;;;8.53;6.03;;;6.10;71.50;;;;;;4932862;29;20785;-85
2021/11/08 03:39:23;;;;;;;9.03;5.87;;;6.10;71.20;;;;;;4932716;29;20424;-85
2021/11/08 03:41:49;;;;;;;6.30;5.63;;;6.10;71.90;;;;;;4932431;29;20510;-84
2021/11/08 03:44:14;;;;;;;8.17;6.30;;;6.10;72.50;;;;;;4931822;29;21015;-85
2021/11/08 03:46:40;;;;;;;8.47;5.83;;;6.10;72.30;;;;;;4932505;29;20415;-86
2021/11/08 03:49:06;;;;;;;6.77;6.00;;;6.10;72.00;;;;;;4931970;29;20226;-85
2021/11/08 03:51:33;;;;;;;12.60;6.40;;;6.10;71.50;;;;;;4931933;29;20416;-85
2021/11/08 03:53:59;;;;;;;8.73;5.70;;;6.00;72.20;;;;;;4931628;29;20214;-84
2021/11/08 03:56:25;;;;;;;9.10;5.60;;;6.00;71.30;;;;;;4931956;29;20467;-85
2021/11/08 03:58:51;;;;;;;13.03;5.97;;;6.00;71.00;;;;;;4932120;29;20444;-85
2021/11/08 04:01:17;;;;;;;6.07;5.20;;;5.80;71.30;;;;;;4932231;29;20176;-85
2021/11/08 04:03:43;;;;;;;16.83;6.50;;;5.80;72.10;;;;;;4931988;29;20176;-84
2021/11/08 04:06:09;;;;;;;9.53;6.30;;;5.90;72.00;;;;;;4932004;29;20451;-85
2021/11/08 04:08:36;;;;;;;9.07;6.10;;;5.90;71.50;;;;;;4931618;29;20207;-85
2021/11/08 04:11:02;;;;;;;8.20;6.50;;;5.90;71.90;;;;;;4932680;29;20420;-85
2021/11/08 04:13:33;;;;;;;11.47;6.90;;;5.90;71.80;;;;;;4932513;29;20471;-84
2021/11/08 04:16:01;;;;;;;11.07;6.77;;;5.90;72.40;;;;;;4931911;29;20423;-85
2021/11/08 04:18:30;;;;;;;14.30;7.40;;;5.80;72.00;;;;;;4932348;29;20430;-85
2021/11/08 04:20:57;;;;;;;13.23;7.30;;;5.80;72.20;;;;;;4932589;29;20424;-86
2021/11/08 04:23:24;;;;;;;10.60;6.67;;;5.80;71.10;;;;;;4931789;29;20424;-86
2021/11/08 04:25:52;;;;;;;8.63;6.17;;;5.70;71.30;;;;;;4931356;29;20423;-85
2021/11/08 04:28:18;;;;;;;8.97;7.67;;;5.70;71.70;;;;;;4931557;29;20614;-85
2021/11/08 04:30:44;;;;;;;11.83;6.23;;;5.70;71.10;;;;;;4930991;29;20507;-85
2021/11/08 04:33:23;;;;;;;10.10;6.37;;;5.70;70.80;;;;;;4930783;29;20432;-85
2021/11/08 04:36:11;;;;;;;11.63;6.30;;;5.60;72.20;;;;;;4934586;29;20412;-85
2021/11/08 05:21:38;;;;;;;10.80;7.10;;;5.50;72.50;;;;;;4937037;29;20516;-87
2021/11/08 05:31:51;;;;;;;9.37;7.17;;;5.50;71.30;;;;;;4937156;29;21048;-86
2021/11/08 05:34:17;;;;;;;9.77;7.10;;;5.50;71.80;;;;;;4935413;29;20391;-87
2021/11/08 05:36:44;;;;;;;9.90;7.13;;;5.40;72.30;;;;;;4935978;29;20420;-86
2021/11/08 05:39:10;;;;;;;8.30;6.57;;;5.50;72.40;;;;;;4935286;29;20412;-84
2021/11/08 05:41:36;;;;;;;9.47;8.33;;;5.50;72.80;;;;;;4935669;29;20788;-87
2021/11/08 05:44:04;;;;;;;7.70;7.00;;;5.50;73.00;;;;;;4936147;29;20412;-85
2021/11/08 05:46:35;;;;;;;7.87;7.17;;;5.40;72.50;;;;;;4934106;29;20881;-85
2021/11/08 05:49:02;;;;;;;8.70;6.50;;;5.40;72.50;;;;;;4935980;29;20423;-86
2021/11/08 05:51:28;;;;;;;8.00;7.30;;;5.40;72.90;;;;;;4935816;29;20507;-85
2021/11/08 05:53:54;;;;;;;8.37;7.53;;;5.50;72.10;;;;;;4935944;29;20517;-84
2021/11/08 05:56:50;;;;;;;11.90;7.20;;;5.40;72.40;;;;;;4935553;29;20933;-84
2021/11/08 06:51:02;;;;;;;13.13;8.47;;;5.40;72.80;;;;;;4936182;29;20416;-84
2021/11/08 06:53:31;;;;;;;9.77;8.50;;;5.40;72.00;;;;;;4925472;29;21020;-83
2021/11/08 06:56:01;;;;;;;10.10;7.97;;;5.30;73.30;;;;;;4932031;29;20654;-81
2021/11/08 06:58:27;;;;;;;11.63;9.43;;;5.30;73.10;;;;;;4930016;29;20523;-84
2021/11/08 07:00:54;;;;;;;9.27;7.67;;;5.40;73.70;;;;;;4929616;29;20448;-85
2021/11/08 07:03:20;;;;;;;15.47;8.70;;;5.40;72.50;;;;;;4929644;29;20428;-83
2021/11/08 07:05:46;;;;;;;10.50;8.50;;;5.40;71.80;;;;;;4929521;29;20479;-85
2021/11/08 07:08:12;;;;;;;15.27;7.83;;;5.40;72.20;;;;;;4929543;29;20551;-83
2021/11/08 07:10:39;;;;;;;14.97;9.43;;;5.40;72.50;;;;;;4929673;29;20504;-83
2021/11/08 07:13:05;;;;;;;11.60;9.93;;;5.50;72.40;;;;;;4933257;29;20177;-84
2021/11/08 07:15:30;;;;;;;16.80;10.43;;;5.50;73.10;;;;;;4934214;29;20824;-83
2021/11/08 07:17:56;;;;;;;19.03;10.63;;;5.50;73.10;;;;;;4934181;29;20511;-83
2021/11/08 07:20:23;;;;;;;11.07;9.50;;;5.60;72.70;;;;;;4934147;29;20183;-84
2021/11/08 07:22:50;;;;;;;11.30;9.47;;;5.60;72.70;;;;;;4933384;29;20567;-84
2021/11/08 07:25:16;;;;;;;11.47;8.63;;;5.60;72.70;;;;;;4930521;29;20443;-87
2021/11/08 07:27:44;;;;;;;10.17;9.17;;;5.60;73.00;;;;;;4914754;29;20457;-88
2021/11/08 07:30:12;;;;;;;16.00;9.90;;;5.70;72.80;;;;;;4916207;29;20203;-87
2021/11/08 07:32:37;;;;;;;11.07;9.70;;;5.70;73.20;;;;;;4917798;29;20412;-87
2021/11/08 07:35:04;;;;;;;12.87;8.90;;;5.70;72.30;;;;;;4920544;29;20429;-87
2021/11/08 07:37:30;;;;;;;10.17;8.90;;;5.70;71.90;;;;;;4923478;29;20275;-88
2021/11/08 07:39:55;;;;;;;11.70;9.37;;;5.80;71.40;;;;;;4919333;29;20444;-89
2021/11/08 07:42:21;;;;;;;15.90;9.63;;;5.80;71.70;;;;;;4917551;29;20181;-88
2021/11/08 07:44:48;;;;;;;10.90;9.20;;;5.90;71.20;;;;;;4916356;29;20575;-88
2021/11/08 07:47:14;;;;;;;13.77;9.07;;;5.90;70.90;;;;;;4917235;29;20534;-88
2021/11/08 07:49:40;;;;;;;11.90;9.20;;;5.90;70.70;;;;;;4916628;29;20421;-87
2021/11/08 07:52:08;;;;;;;10.63;9.20;;;5.90;70.60;;;;;;4915929;29;20780;-88
2021/11/08 07:54:35;;;;;;;13.77;9.57;;;6.00;71.20;;;;;;4915960;29;20203;-87
2021/11/08 07:57:01;;;;;;;12.63;9.37;;;6.00;70.80;;;;;;4914796;29;20451;-87
2021/11/08 07:59:27;;;;;;;13.90;9.87;;;6.10;70.30;;;;;;4915554;29;20861;-86
2021/11/08 08:01:53;;;;;;;16.40;9.87;;;6.10;70.00;;;;;;4915320;29;20449;-87
2021/11/08 08:04:19;;;;;;;12.87;9.53;;;6.20;70.40;;;;;;4915181;29;20419;-88
2021/11/08 08:06:48;;;;;;;9.63;8.73;;;6.20;68.70;;;;;;4931419;29;20425;-87
2021/11/08 08:09:14;;;;;;;13.60;11.43;;;6.20;69.20;;;;;;4917618;29;20426;-87
2021/11/08 08:11:40;;;;;;;12.17;10.40;;;6.20;69.20;;;;;;4920701;29;20420;-86
2021/11/08 08:14:06;;;;;;;12.13;9.90;;;6.30;68.90;;;;;;4920681;29;20415;-87
2021/11/08 08:16:31;;;;;;;10.60;8.80;;;6.30;68.80;;;;;;4921008;29;20260;-89
2021/11/08 08:18:58;;;;;;;11.57;8.67;;;6.40;68.30;;;;;;4920299;29;20198;-89
2021/11/08 08:21:24;;;;;;;8.77;7.87;;;6.40;67.70;;;;;;4920195;29;20544;-89
2021/11/08 08:23:56;;;;;;;12.40;7.93;;;6.50;67.00;;;;;;4920390;29;20429;-89
2021/11/08 08:26:34;;;;;;;13.33;8.10;;;6.50;65.90;;;;;;4920914;29;20420;-87
2021/11/08 08:29:03;;;;;;;8.97;8.20;;;6.50;65.50;;;;;;4919971;29;20428;-88
2021/11/08 08:31:30;;;;;;;11.80;8.37;;;6.60;65.50;;;;;;4920522;29;20423;-88
2021/11/08 08:33:56;;;;;;;8.07;7.27;;;6.60;64.70;;;;;;4920481;29;20412;-89
2021/11/08 08:36:21;;;;;;;9.27;7.37;;;6.60;64.20;;;;;;4919733;29;20784;-87
2021/11/08 08:38:49;;;;;;;13.77;8.77;;;6.60;65.70;;;;;;4919205;29;20187;-89
2021/11/08 08:41:15;;;;;;;14.97;8.63;;;6.60;66.60;;;;;;4919382;29;20180;-89
2021/11/08 08:43:41;;;;;;;9.90;7.90;;;6.70;66.20;;;;;;4919638;29;20506;-88
2021/11/08 08:46:07;;;;;;;12.83;8.23;;;6.70;67.10;;;;;;4919543;29;20434;-85
2021/11/08 08:48:32;;;;;;;10.20;7.23;;;6.80;67.20;;;;;;4918980;29;20756;-87
2021/11/08 08:51:00;;;;;;;10.13;8.80;;;6.80;65.80;;;;;;4934982;29;20644;-87
2021/11/08 08:53:26;;;;;;;9.57;7.40;;;6.90;66.00;;;;;;4918865;29;20421;-87
2021/11/08 08:55:52;;;;;;;10.80;7.90;;;7.00;66.10;;;;;;4919167;29;20426;-88
2021/11/08 08:58:18;;;;;;;13.13;8.17;;;7.00;64.40;;;;;;4918546;29;20207;-84
2021/11/08 09:00:48;;;;;;;14.40;8.77;;;7.10;65.90;;;;;;4918322;29;20271;-83
2021/11/08 09:03:17;;;;;;;13.63;9.07;;;7.30;64.60;;;;;;4918356;29;20917;-84
2021/11/08 09:05:45;;;;;;;11.40;7.80;;;7.30;65.00;;;;;;4918467;29;20767;-83
2021/11/08 09:08:10;;;;;;;12.33;7.70;;;7.30;64.70;;;;;;4918126;29;20499;-84
2021/11/08 09:10:37;;;;;;;10.07;7.50;;;7.50;64.40;;;;;;4918258;29;20463;-86
2021/11/08 09:13:03;;;;;;;12.50;8.90;;;7.50;61.50;;;;;;4917877;29;20606;-84
2021/11/08 09:15:30;;;;;;;10.17;6.70;;;7.50;61.00;;;;;;4917579;29;20808;-83
2021/11/08 09:17:57;;;;;;;14.83;7.53;;;7.60;59.90;;;;;;4917482;29;20423;-85
2021/11/08 09:20:23;;;;;;;7.90;6.70;;;7.70;61.30;;;;;;4917442;29;20419;-83
2021/11/08 09:22:57;;;;;;;10.83;8.57;;;7.80;62.20;;;;;;4920997;29;20516;-83
2021/11/08 09:25:25;;;;;;;11.57;8.87;;;7.90;61.00;;;;;;4926256;29;20183;-83
2021/11/08 09:27:53;;;;;;;13.40;8.90;;;8.10;61.20;;;;;;4933345;29;20526;-83
2021/11/08 09:30:21;;;;;;;12.40;10.93;;;8.20;60.40;;;;;;4934832;29;20417;-84
2021/11/08 09:32:47;;;;;;;9.73;8.73;;;8.30;59.30;;;;;;4936062;29;20439;-84
2021/11/08 09:35:13;;;;;;;10.80;7.17;;;8.40;59.90;;;;;;4933946;29;20412;-84
2021/11/08 09:37:48;;;;;;;19.57;14.00;;;8.60;58.50;;;;;;4927688;29;20183;-84
2021/11/08 09:40:21;;;;;;;10.40;7.83;;;8.60;57.20;;;;;;4925741;29;20424;-84
2021/11/08 09:42:50;;;;;;;12.33;7.87;;;8.50;57.30;;;;;;4929233;29;20416;-84
2021/11/08 09:45:16;;;;;;;10.30;7.23;;;8.60;57.20;;;;;;4934200;29;20452;-84
2021/11/08 09:47:45;;;;;;;12.40;8.47;;;8.40;57.60;;;;;;4935730;29;20470;-84
2021/11/08 09:50:12;;;;;;;12.50;7.93;;;8.40;57.80;;;;;;4936136;29;20427;-86
2021/11/08 09:52:41;;;;;;;12.37;9.60;;;8.40;57.80;;;;;;4936005;29;20820;-84
2021/11/08 09:55:12;;;;;;;13.20;8.10;;;8.40;58.70;;;;;;4937210;29;20440;-90
2021/11/08 09:57:39;;;;;;;9.73;8.37;;;8.40;58.50;;;;;;4952048;29;20447;-85
2021/11/08 10:00:27;;;;;;;12.80;8.40;;;8.40;59.10;;;;;;4936055;29;20519;-85
2021/11/08 10:03:01;;;;;;;12.73;9.13;;;8.40;59.30;;;;;;4935948;29;20927;-86
2021/11/08 10:05:31;;;;;;;13.20;9.27;;;8.30;59.30;;;;;;4935632;29;20420;-84
2021/11/08 10:07:58;;;;;;;14.17;9.57;;;8.30;60.00;;;;;;4921141;29;20535;-84
2021/11/08 10:10:24;;;;;;;13.30;8.97;;;8.40;60.00;;;;;;4917720;29;20431;-84
2021/11/08 10:13:04;;;;;;;18.60;9.13;;;8.40;59.90;;;;;;4917114;29;20417;-85
2021/11/08 10:15:29;;;;;;;11.20;9.03;;;8.40;59.10;;;;;;4917214;29;20173;-85
2021/11/08 10:17:55;;;;;;;11.37;8.80;;;8.40;59.00;;;;;;4916986;29;20435;-85
2021/11/08 10:20:37;;;;;;;10.23;8.20;;;8.50;58.90;;;;;;4917580;29;20424;-85
2021/11/08 10:23:04;;;;;;;11.60;9.00;;;8.50;59.20;;;;;;4918512;29;20192;-84
2021/11/08 10:25:33;;;;;;;14.50;7.43;;;8.50;58.60;;;;;;4937545;29;20510;-85
2021/11/08 10:27:58;;;;;;;10.20;6.33;;;8.40;56.60;;;;;;4936109;29;20466;-84
2021/11/08 10:30:31;;;;;;;15.87;8.70;;;8.30;58.20;;;;;;4936017;29;20419;-85
2021/11/08 10:33:18;;;;;;;15.53;7.77;;;8.40;59.80;;;;;;4935630;29;20848;-85
2021/11/08 10:35:56;;;;;;;9.63;8.07;;;8.50;60.30;;;;;;4936282;29;20978;-85
2021/11/08 10:38:23;;;;;;;18.00;10.00;;;8.40;58.60;;;;;;4936224;29;20426;-85
2021/11/08 10:40:58;;;;;;;16.27;9.70;;;8.50;59.10;;;;;;4952191;29;20427;-85
2021/11/08 10:43:27;;;;;;;13.80;9.40;;;8.50;59.20;;;;;;4936199;29;20422;-85
2021/11/08 10:45:55;;;;;;;12.23;7.30;;;8.40;58.80;;;;;;4935996;29;20430;-85
2021/11/08 10:48:24;;;;;;;10.93;8.33;;;8.40;58.20;;;;;;4935741;29;20939;-85
2021/11/08 10:50:53;;;;;;;16.57;8.53;;;8.40;58.70;;;;;;4935852;29;20423;-84
2021/11/08 10:53:19;;;;;;;9.40;7.13;;;8.50;57.70;;;;;;4935656;29;20416;-85
2021/11/08 10:55:54;;;;;;;11.10;7.33;;;8.50;57.80;;;;;;4935766;29;20416;-84
2021/11/08 10:58:22;;;;;;;9.97;7.00;;;8.50;57.60;;;;;;4951750;29;20855;-84
2021/11/08 11:00:59;;;;;;;10.00;6.87;;;8.50;55.40;;;;;;4935586;29;20423;-84
2021/11/08 11:03:26;;;;;;;10.00;6.70;;;8.50;55.30;;;;;;4935627;29;20436;-85
2021/11/08 11:06:04;;;;;;;7.67;6.47;;;8.70;54.00;;;;;;4935488;29;20764;-85
2021/11/08 11:08:32;;;;;;;7.70;6.90;;;8.60;53.20;;;;;;4935112;29;20481;-85
2021/11/08 11:11:01;;;;;;;13.93;7.73;;;8.60;53.50;;;;;;4935565;29;20420;-85
2021/11/08 11:13:29;;;;;;;14.30;8.57;;;8.70;55.00;;;;;;4937243;29;20424;-85
2021/11/08 11:16:02;;;;;;;10.77;7.50;;;8.60;55.30;;;;;;4937019;29;20471;-84
2021/11/08 11:18:32;;;;;;;11.30;7.73;;;8.70;56.40;;;;;;4951251;29;20780;-84
2021/11/08 11:20:58;;;;;;;11.60;8.75;;;8.70;56.30;;;;;;4921965;29;20426;-84
2021/11/08 11:23:27;;;;;;;11.33;8.27;;;8.70;56.10;;;;;;4916193;29;20194;-84
2021/11/08 11:26:03;;;;;;;10.50;6.90;;;8.60;56.00;;;;;;4916146;29;20428;-84
2021/11/08 11:28:35;;;;;;;14.67;7.33;;;8.60;55.30;;;;;;4916252;29;20980;-92
2021/11/08 11:31:15;;;;;;;13.30;8.37;;;8.60;55.40;;;;;;4917512;29;20417;-87
2021/11/08 11:33:41;;;;;;;14.00;8.27;;;8.60;54.90;;;;;;4926885;29;20428;-89
2021/11/08 11:36:15;;;;;;;10.93;7.60;;;8.60;55.00;;;;;;4916449;29;20461;-89
2021/11/08 11:39:06;;;;;;;11.33;8.60;;;8.50;54.60;;;;;;4923493;29;20486;-90
2021/11/08 11:41:35;;;;;;;14.17;7.20;;;8.50;54.70;;;;;;4937643;29;20480;-88
2021/11/08 11:44:11;;;;;;;10.80;6.50;;;8.50;54.80;;;;;;4939817;28;20496;-85
2021/11/08 11:46:41;;;;;;;11.23;7.33;;;8.50;54.20;;;;;;4923512;29;20858;-85
2021/11/08 11:49:10;;;;;;;12.20;6.60;;;8.50;54.30;;;;;;4924849;29;20428;-85
2021/11/08 11:51:39;;;;;;;10.80;7.50;;;8.50;54.40;;;;;;4931448;29;20423;-88
2021/11/08 11:54:06;;;;;;;10.20;6.37;;;8.50;54.20;;;;;;4930753;29;20404;-88
2021/11/08 11:56:35;;;;;;;12.70;7.17;;;8.60;54.80;;;;;;4931312;29;20444;-90
2021/11/08 11:59:01;;;;;;;11.60;7.60;;;8.70;54.80;;;;;;4922260;29;20421;-90
2021/11/08 12:01:32;;;;;;;11.03;7.60;;;8.80;53.80;;;;;;4927580;29;20417;-90
2021/11/08 12:03:58;;;;;;;20.30;7.20;;;8.90;53.40;;;;;;4927229;29;20451;-89
2021/11/08 12:06:30;;;;;;;17.73;6.83;;;8.90;53.70;;;;;;4929533;29;20441;-89
2021/11/08 12:08:58;;;;;;;10.33;6.80;;;8.90;53.50;;;;;;4925885;29;20204;-89
2021/11/08 12:11:37;;;;;;;11.60;7.50;;;8.90;54.20;;;;;;4926802;29;20419;-89
2021/11/08 12:14:08;;;;;;;13.43;7.70;;;8.90;54.10;;;;;;4951810;29;20412;-89
2021/11/08 12:16:34;;;;;;;9.60;7.03;;;8.90;53.30;;;;;;4951312;29;20427;-87
2021/11/08 12:19:02;;;;;;;10.77;6.97;;;8.90;53.30;;;;;;4933844;29;20759;-83
2021/11/08 12:21:38;;;;;;;13.07;6.10;;;8.90;52.20;;;;;;4933592;29;20424;-85
2021/11/08 12:24:28;;;;;;;8.70;5.73;;;8.90;52.50;;;;;;4933875;29;20998;-82
2021/11/08 12:27:12;;;;;;;14.23;5.90;;;8.90;53.00;;;;;;4934580;29;20963;-90
2021/11/08 12:29:52;;;;;;;11.87;6.07;;;8.90;53.50;;;;;;4935332;29;20526;-90
2021/11/08 12:32:18;;;;;;;14.90;5.50;;;8.90;53.70;;;;;;4951036;29;20423;-88
2021/11/08 12:34:47;;;;;;;11.87;6.03;;;8.90;52.50;;;;;;4935035;29;20795;-90
2021/11/08 12:37:15;;;;;;;7.17;5.67;;;8.90;51.40;;;;;;4934948;29;20791;-90
2021/11/08 12:39:42;;;;;;;10.83;6.67;;;8.90;51.80;;;;;;4934649;29;20430;-91
2021/11/08 12:42:12;;;;;;;11.73;6.80;;;8.90;53.10;;;;;;4935196;29;20510;-91
2021/11/08 12:44:49;;;;;;;12.43;6.27;;;9.00;54.10;;;;;;4934948;29;20440;-91
2021/11/08 12:47:15;;;;;;;11.73;6.40;;;9.00;53.60;;;;;;4935472;29;21020;-92
2021/11/08 12:49:53;;;;;;;10.60;4.73;;;9.00;52.40;;;;;;4935328;29;20416;-91
2021/11/08 12:52:27;;;;;;;9.87;5.03;;;9.00;50.10;;;;;;4926988;29;20836;-92
2021/11/08 12:55:05;;;;;;;6.27;4.00;;;9.00;50.50;;;;;;4933649;29;20426;-91
2021/11/08 12:57:32;;;;;;;9.60;4.77;;;9.00;48.60;;;;;;4953498;29;20495;-91
2021/11/08 13:00:18;;;;;;;9.17;4.70;;;9.10;49.20;;;;;;4940445;29;20419;-91
2021/11/08 13:02:56;;;;;;;10.20;4.83;;;9.20;49.00;;;;;;4939859;29;20424;-91
2021/11/08 13:05:32;;;;;;;9.30;4.87;;;9.30;49.50;;;;;;4939697;29;20864;-91
2021/11/08 13:07:59;;;;;;;10.27;5.00;;;9.30;48.50;;;;;;4938977;29;20467;-91
2021/11/08 13:10:35;;;;;;;8.43;5.10;;;9.30;48.90;;;;;;4939563;29;20980;-91
2021/11/08 13:13:03;;;;;;;15.27;5.47;;;9.40;48.60;;;;;;4939377;29;20419;-92
2021/11/08 13:15:31;;;;;;;9.63;5.37;;;9.40;48.10;;;;;;4939144;29;20785;-91
2021/11/08 13:18:10;;;;;;;10.07;4.07;;;9.50;48.50;;;;;;4939622;29;20506;-92
2021/11/08 13:20:46;;;;;;;13.43;4.90;;;9.50;48.50;;;;;;4939855;29;20427;-92
2021/11/08 13:23:19;;;;;;;7.53;3.80;;;9.50;48.20;;;;;;4928216;29;20428;-90
2021/11/08 13:26:03;;;;;;;8.53;3.93;;;9.60;47.50;;;;;;4935546;29;20409;-90
2021/11/08 13:28:34;;;;;;;8.67;4.90;;;9.70;48.80;;;;;;4934991;29;20555;-93
2021/11/08 13:31:11;;;;;;;11.10;4.80;;;9.80;47.00;;;;;;4935242;29;20431;-91
2021/11/08 13:33:44;;;;;;;7.47;4.70;;;9.80;45.70;;;;;;4937077;29;20507;-93
2021/11/08 13:36:13;;;;;;;9.20;3.47;;;9.80;45.00;;;;;;4942711;29;20421;-91
2021/11/08 13:38:42;;;;;;;5.90;3.73;;;9.80;45.20;;;;;;4947980;28;20440;-90
2021/11/08 13:41:30;;;;;;;13.53;4.03;;;9.90;44.40;;;;;;4919850;29;20476;-84
2021/11/08 13:44:02;;;;;;;8.17;3.93;;;9.80;43.90;;;;;;4933711;29;20532;-85
2021/11/08 13:46:34;;;;;;;3.77;3.47;;;9.90;44.50;;;;;;4933464;29;20463;-85
2021/11/08 13:49:11;;;;;;;9.87;4.50;;;9.80;45.20;;;;;;4932917;29;20468;-85
2021/11/08 13:51:42;;;;;;;6.60;3.77;;;9.90;44.00;;;;;;4933136;29;20467;-85
2021/11/08 13:54:15;;;;;;;12.93;5.70;;;9.90;44.30;;;;;;4931965;29;20507;-84
2021/11/08 13:56:46;;;;;;;6.10;5.40;;;9.90;46.00;;;;;;4932106;29;20475;-86
2021/11/08 13:59:23;;;;;;;5.83;5.07;;;9.80;46.60;;;;;;4932976;29;20456;-86
2021/11/08 14:01:56;;;;;;;6.13;4.83;;;9.70;47.20;;;;;;4933002;29;20786;-86
2021/11/08 14:04:49;;;;;;;5.10;4.60;;;9.60;47.10;;;;;;4932986;29;20476;-85
2021/11/08 14:07:17;;;;;;;11.77;4.13;;;9.60;47.20;;;;;;4915615;29;20555;-87
2021/11/08 14:09:44;;;;;;;8.17;4.70;;;9.60;46.80;;;;;;4918228;29;20949;-86
2021/11/08 14:12:13;;;;;;;11.10;5.90;;;9.50;47.10;;;;;;4932632;29;20413;-86
2021/11/08 14:14:39;;;;;;;10.00;5.17;;;9.50;48.20;;;;;;4934327;29;20453;-92
2021/11/08 14:17:09;;;;;;;14.03;5.87;;;9.60;48.50;;;;;;4935204;29;20445;-92
2021/11/08 14:19:34;;;;;;;9.97;5.20;;;9.60;48.70;;;;;;4935175;29;20504;-92
2021/11/08 14:22:00;;;;;;;8.20;4.80;;;9.60;48.60;;;;;;4935213;29;20463;-92
2021/11/08 14:24:27;;;;;;;7.53;4.97;;;9.50;48.00;;;;;;4934759;29;20184;-92
2021/11/08 14:26:55;;;;;;;8.77;4.30;;;9.60;48.20;;;;;;4935180;29;20181;-91
2021/11/08 14:29:34;;;;;;;6.10;4.70;;;9.60;48.30;;;;;;4918836;29;20480;-91
2021/11/08 14:32:08;;;;;;;11.53;5.20;;;9.60;49.20;;;;;;4933565;29;20416;-91
2021/11/08 14:34:39;;;;;;;9.17;5.77;;;9.50;47.30;;;;;;4933512;29;20851;-91
2021/11/08 14:37:15;;;;;;;6.67;5.30;;;9.60;48.40;;;;;;4933284;29;20456;-91
2021/11/08 14:39:49;;;;;;;11.80;5.80;;;9.50;49.30;;;;;;4933627;29;20446;-92
2021/11/08 14:42:18;;;;;;;10.23;5.73;;;9.50;49.50;;;;;;4933578;29;20437;-92
2021/11/08 14:44:50;;;;;;;15.27;7.00;;;9.50;50.20;;;;;;4933789;29;20425;-92
2021/11/08 14:47:27;;;;;;;12.10;7.70;;;9.40;50.10;;;;;;4934436;29;20900;-91
2021/11/08 14:49:53;;;;;;;11.03;7.00;;;9.40;50.00;;;;;;4934410;29;20421;-91
2021/11/08 14:52:19;;;;;;;12.30;6.60;;;9.40;51.80;;;;;;4934041;29;20825;-91
2021/11/08 14:54:52;;;;;;;9.50;6.43;;;9.30;51.40;;;;;;4934678;29;20516;-92
2021/11/08 14:57:18;;;;;;;11.10;6.90;;;9.30;50.80;;;;;;4934065;29;20447;-91